Aeroporto :
LOGIN :

Iscrizione | Disclaimer

   EN    FR    IT 

 










Sommario :    VFR   VFR Marginale   IFR   IFR Intensivo   IFR Molto Intensivo
Visibilità : 
Base nubi : 
>= 8 km
>= 3000ft
5 / 8 km
1000 / 3000 ft
1500m / 5 km
500 / 1000 ft
800 / 1500m
200 / 500 ft
< 800m
< 200 ft
Simboli :   Temporali  Nebbia  Neve Forte  Precipitazioni Forti  Vento > 20 kt
SIGMETs :   Varie  Temporali  Ghiacco  Turbolenza  Onda orograficha  Ceneri Vulcaniche






- Altitudine del aeroporto : 529 ft
- Codice IATA : CHR


LFLX - Chateauroux

ULTIMO METAR :
  • 220700Z AUTO 13005KT CAVOK 03/02 Q1002 NOSIG

METARs OBSOLETI :
  • 220630Z AUTO 12005KT CAVOK 03/02 Q1002 NOSIG
  • 220600Z AUTO 13005KT CAVOK 04/02 Q1002 NOSIG
  • 220530Z AUTO 12007KT CAVOK 04/03 Q1002 NOSIG
  • 220500Z AUTO 11006KT CAVOK 03/02 Q1002 NOSIG
  • 220430Z AUTO 13005KT CAVOK 04/03 Q1002 NOSIG

TAF TAF LFLX
Valido dal 22 a 06 ore il 23 a 12 ore UTC


220500Z 2206/2312 16008KT 9999 SCT040
TEMPO 2219/2306 4000 -RA BKN020
PROB30
TEMPO 2303/2308 4000 RA BKN012



MetMap, La meteo Aeronautica in un colpo d'occhio ! - Copyright ORBIFLY Dicembre 2007 - Disclaimer

ORBIFLY MET'MAP TEAM :

Programmazione e sviluppo : Alexandra Zaïnal
Concezione e sviluppo : Baudouin d'Aumeries
Co-Programmazione e sviluppo : Marc-Olivier Méhu
Supporto tecnico e logistico : Manuel Goepfert
Aiuto per la traduzione : Arnaldo La Scala

Contatto : metmap@orbifly.com




FONTI E CREDITI :

   NOAA